Time;durP1;ratioP1;P1;durP2;ratioP2;P2;SDS_P1;SDS_P2;PMS_P1;PMS_P2;Temp;Humidity;BMP_temperature;BMP_pressure;BME280_temperature;BME280_humidity;BME280_pressure;Samples;Min_cycle;Max_cycle;Signal;HPM_P1;HPM_P2
2022/10/24 00:00:11;;;;;;;6.03;3.80;;;;;;;11.72;95.91;100442.50;1797241;78;21480;-67
2022/10/24 00:02:40;;;;;;;5.72;3.35;;;;;;;11.73;95.83;100445.56;1795470;79;21080;-68
2022/10/24 00:05:12;;;;;;;6.65;3.30;;;;;;;11.74;95.71;100445.04;1788446;78;21475;-67
2022/10/24 00:07:40;;;;;;;5.62;3.37;;;;;;;11.76;95.62;100442.94;1766817;80;21070;-67
2022/10/24 00:10:12;;;;;;;6.00;3.58;;;;;;;11.76;95.46;100444.31;1785289;78;21063;-68
2022/10/24 00:12:41;;;;;;;5.87;3.72;;;;;;;11.76;95.36;100444.31;1790913;79;21544;-67
2022/10/24 00:15:12;;;;;;;8.53;3.75;;;;;;;11.75;95.25;100443.47;1718023;81;21094;-68
2022/10/24 00:17:43;;;;;;;7.10;3.27;;;;;;;11.75;95.17;100435.23;1775400;79;21027;-67
2022/10/24 00:20:13;;;;;;;5.87;3.55;;;;;;;11.74;94.93;100431.31;1776738;79;21072;-67
2022/10/24 00:22:41;;;;;;;5.58;3.30;;;;;;;11.69;94.83;100429.16;1779644;78;21053;-67
2022/10/24 00:25:12;;;;;;;4.33;3.45;;;;;;;11.66;94.78;100421.33;1773510;79;21026;-68
2022/10/24 00:27:41;;;;;;;6.53;2.95;;;;;;;11.64;94.79;100431.66;1781744;79;21034;-68
2022/10/24 00:30:12;;;;;;;6.03;3.02;;;;;;;11.62;94.68;100434.29;1780090;79;21441;-68
2022/10/24 00:32:41;;;;;;;5.58;3.37;;;;;;;11.62;94.60;100439.78;1759300;78;21499;-67
2022/10/24 00:35:13;;;;;;;6.92;3.15;;;;;;;11.60;94.58;100441.35;1778546;79;21090;-68
2022/10/24 00:37:42;;;;;;;5.42;3.50;;;;;;;11.59;94.49;100449.27;1759971;79;21008;-69
2022/10/24 00:40:16;;;;;;;6.08;3.35;;;;;;;11.56;94.44;100455.69;1780695;79;21037;-68
2022/10/24 00:42:46;;;;;;;7.25;3.35;;;;;;;11.52;94.39;100453.87;1779587;79;21061;-68
2022/10/24 00:45:41;;;;;;;5.15;3.05;;;;;;;11.50;94.45;100453.75;1782888;79;21053;-67
2022/10/24 00:48:37;;;;;;;6.40;3.45;;;;;;;11.46;94.48;100456.58;1769120;80;21042;-67
2022/10/24 00:51:24;;;;;;;5.40;3.30;;;;;;;11.40;94.61;100448.62;1771974;79;21011;-66
2022/10/24 00:54:04;;;;;;;6.53;3.20;;;;;;;11.36;94.66;100448.72;1774619;79;21034;-69
2022/10/24 00:56:36;;;;;;;5.55;3.12;;;;;;;11.34;94.76;100448.06;1778596;79;21086;-67
2022/10/24 00:59:08;;;;;;;6.87;3.10;;;;;;;11.32;94.79;100445.52;1799117;78;21545;-67
2022/10/24 01:01:37;;;;;;;5.55;3.47;;;;;;;11.31;94.91;100454.80;1774827;78;21101;-68
2022/10/24 01:04:08;;;;;;;6.70;3.10;;;;;;;11.31;95.05;100456.70;1774514;79;21149;-67
2022/10/24 01:07:01;;;;;;;5.30;3.25;;;;;;;11.29;95.23;100453.31;1762517;79;21075;-66
2022/10/24 01:09:48;;;;;;;6.28;3.05;;;;;;;11.30;95.34;100449.00;1766216;79;21047;-68
2022/10/24 01:12:47;;;;;;;5.83;3.45;;;;;;;11.31;95.51;100453.95;1766162;79;21008;-68
2022/10/24 01:15:49;;;;;;;7.50;3.72;;;;;;;11.31;95.66;100452.06;1715703;82;21064;-69
2022/10/24 01:18:32;;;;;;;5.12;3.33;;;;;;;11.32;95.82;100456.50;1771682;79;21012;-69
2022/10/24 01:21:14;;;;;;;6.10;3.50;;;;;;;11.33;95.99;100447.74;1766367;79;21491;-68
2022/10/24 01:24:13;;;;;;;5.58;3.42;;;;;;;11.34;96.14;100449.44;1790822;78;21037;-69
2022/10/24 01:27:09;;;;;;;6.40;3.60;;;;;;;11.35;96.22;100445.64;1770570;78;21051;-68
2022/10/24 01:29:54;;;;;;;9.00;3.80;;;;;;;11.35;96.40;100440.16;1763693;79;21007;-68
2022/10/24 01:32:44;;;;;;;7.75;3.87;;;;;;;11.35;96.58;100448.39;1797465;79;21033;-67
2022/10/24 01:35:39;;;;;;;7.42;3.77;;;;;;;11.34;96.69;100447.54;1781330;78;21039;-67
2022/10/24 01:38:12;;;;;;;5.30;3.62;;;;;;;11.34;96.75;100450.28;1787816;78;21105;-67
2022/10/24 01:41:00;;;;;;;5.85;3.67;;;;;;;11.35;96.80;100452.50;1778263;79;21061;-68
2022/10/24 01:43:42;;;;;;;6.65;4.20;;;;;;;11.33;96.72;100449.96;1779869;78;21049;-67
2022/10/24 01:46:16;;;;;;;5.70;4.00;;;;;;;11.32;96.88;100452.91;1777353;79;21097;-67
2022/10/24 01:48:52;;;;;;;6.95;4.22;;;;;;;11.30;96.91;100452.27;1767941;79;21065;-66
2022/10/24 01:51:21;;;;;;;7.08;4.00;;;;;;;11.28;96.96;100455.20;1793339;78;21445;-67
2022/10/24 01:53:53;;;;;;;10.13;3.87;;;;;;;11.27;97.01;100454.88;1785439;79;21530;-66
2022/10/24 01:56:26;;;;;;;7.00;3.98;;;;;;;11.26;97.01;100453.19;1768780;79;21483;-68
2022/10/24 01:59:27;;;;;;;9.50;4.20;;;;;;;11.23;97.09;100459.59;1771776;79;21458;-67
2022/10/24 02:02:08;;;;;;;7.45;4.12;;;;;;;11.21;97.28;100458.43;1764695;79;21064;-67
2022/10/24 02:04:42;;;;;;;8.85;3.98;;;;;;;11.20;97.47;100456.73;1793707;79;21061;-67
2022/10/24 02:07:11;;;;;;;8.25;4.15;;;;;;;11.22;97.56;100457.37;1784553;79;21496;-68
2022/10/24 02:09:42;;;;;;;7.42;4.40;;;;;;;11.23;97.56;100455.48;1779972;79;21021;-68
2022/10/24 02:12:11;;;;;;;7.40;4.17;;;;;;;11.24;97.63;100453.06;1783891;79;20982;-69
2022/10/24 02:14:49;;;;;;;6.40;4.30;;;;;;;11.25;97.72;100447.91;1775426;79;21081;-67
2022/10/24 02:17:19;;;;;;;8.20;4.33;;;;;;;11.26;97.82;100448.23;1787475;79;21033;-66
2022/10/24 02:19:49;;;;;;;11.40;5.37;;;;;;;11.27;97.91;100456.78;1768461;79;21536;-66
2022/10/24 02:22:41;;;;;;;9.65;5.05;;;;;;;11.29;97.90;100453.31;1788939;79;21021;-68
2022/10/24 02:25:14;;;;;;;8.48;4.85;;;;;;;11.28;97.87;100457.09;1784508;79;21085;-67
2022/10/24 02:28:12;;;;;;;11.12;5.05;;;;;;;11.26;98.00;100451.81;1780296;78;21109;-69
2022/10/24 02:30:58;;;;;;;9.50;5.05;;;;;;;11.26;98.07;100456.45;1787576;79;21431;-68
2022/10/24 02:33:27;;;;;;;10.65;4.53;;;;;;;11.25;98.20;100456.98;1762826;79;21000;-68
2022/10/24 02:35:56;;;;;;;8.25;4.12;;;;;;;11.27;98.23;100465.00;1791416;79;21050;-68
2022/10/24 02:38:36;;;;;;;9.10;4.75;;;;;;;11.28;98.18;100462.59;1743436;79;21029;-67
2022/10/24 02:41:09;;;;;;;9.00;4.62;;;;;;;11.28;98.20;100460.69;1793395;78;21049;-66
2022/10/24 02:43:40;;;;;;;7.80;4.55;;;;;;;11.27;98.22;100465.86;1787298;79;21067;-68
2022/10/24 02:46:09;;;;;;;8.03;4.25;;;;;;;11.28;98.36;100465.33;1775359;79;21051;-70
2022/10/24 02:48:42;;;;;;;11.57;4.62;;;;;;;11.27;98.42;100469.97;1738751;80;21041;-69
2022/10/24 02:51:12;;;;;;;9.18;4.60;;;;;;;11.29;98.44;100467.02;1786535;78;21069;-68
2022/10/24 02:53:42;;;;;;;7.17;4.50;;;;;;;11.30;98.39;100468.72;1740639;79;21462;-72
2022/10/24 02:56:11;;;;;;;7.45;4.55;;;;;;;11.29;98.45;100468.39;1787221;79;21518;-69
2022/10/24 02:58:40;;;;;;;7.50;4.60;;;;;;;11.30;98.51;100476.95;1778878;79;21033;-70
2022/10/24 03:01:09;;;;;;;8.50;4.12;;;;;;;11.31;98.51;100473.16;1776691;79;21014;-71
2022/10/24 03:03:39;;;;;;;11.33;4.78;;;;;;;11.30;98.51;100482.44;1764870;79;21139;-70
2022/10/24 03:06:09;;;;;;;9.05;4.62;;;;;;;11.30;98.53;100491.52;1785707;79;21076;-71
2022/10/24 03:08:38;;;;;;;9.48;5.20;;;;;;;11.30;98.60;100487.92;1793558;78;21084;-70
2022/10/24 03:11:06;;;;;;;9.60;5.60;;;;;;;11.30;98.77;100486.55;1766331;79;21105;-67
2022/10/24 03:13:36;;;;;;;11.22;5.30;;;;;;;11.30;98.87;100490.66;1765908;79;21092;-70
2022/10/24 03:16:06;;;;;;;9.20;5.22;;;;;;;11.31;98.89;100493.73;1762714;79;21030;-70
2022/10/24 03:18:36;;;;;;;10.32;5.40;;;;;;;11.32;98.88;100485.83;1754892;79;21088;-71
2022/10/24 03:21:06;;;;;;;8.68;4.67;;;;;;;11.34;98.82;100492.80;1779072;79;21045;-69
2022/10/24 03:23:36;;;;;;;10.10;5.25;;;;;;;11.35;98.89;100489.54;1780699;79;21061;-70
2022/10/24 03:26:05;;;;;;;10.78;5.45;;;;;;;11.34;98.86;100484.58;1777599;79;21558;-69
2022/10/24 03:28:37;;;;;;;11.75;5.22;;;;;;;11.34;98.96;100481.83;1780753;79;21023;-71
2022/10/24 03:31:07;;;;;;;10.58;5.35;;;;;;;11.35;99.01;100486.80;1787049;78;21540;-69
2022/10/24 03:33:38;;;;;;;10.50;5.35;;;;;;;11.38;99.03;100490.51;1764020;79;21534;-69
2022/10/24 03:36:08;;;;;;;7.40;5.05;;;;;;;11.41;99.05;100490.11;1782175;78;20996;-71
2022/10/24 03:38:36;;;;;;;12.40;5.50;;;;;;;11.42;99.03;100486.31;1792931;79;21022;-70
2022/10/24 03:41:07;;;;;;;9.70;5.47;;;;;;;11.44;99.05;100485.06;1790892;78;21446;-70
2022/10/24 03:43:37;;;;;;;7.60;4.97;;;;;;;11.46;99.01;100483.48;1769700;79;21041;-70
2022/10/24 03:46:07;;;;;;;9.93;4.58;;;;;;;11.49;98.93;100495.44;1711500;82;21301;-71
2022/10/24 03:48:36;;;;;;;8.35;5.00;;;;;;;11.50;98.86;100490.27;1652556;84;21073;-69
2022/10/24 03:51:05;;;;;;;9.58;5.58;;;;;;;11.51;98.86;100489.22;1718582;82;21134;-71
2022/10/24 03:53:37;;;;;;;11.30;5.25;;;;;;;11.53;98.85;100491.23;1710988;81;21131;-70
2022/10/24 03:56:08;;;;;;;11.10;5.45;;;;;;;11.53;98.76;100493.14;1681685;84;21037;-70
2022/10/24 03:58:38;;;;;;;12.10;6.22;;;;;;;11.53;98.76;100496.73;1692446;84;21529;-69
2022/10/24 04:01:15;;;;;;;11.57;5.87;;;;;;;11.52;98.72;100500.52;1639077;86;21107;-70
2022/10/24 04:03:40;;;;;;;14.10;6.60;;;;;;;11.50;98.67;100503.14;1639293;84;21034;-69
2022/10/24 04:06:09;;;;;;;12.37;5.80;;;;;;;11.49;98.72;100505.56;1692690;84;21083;-70
2022/10/24 04:08:38;;;;;;;9.33;5.53;;;;;;;11.49;98.76;100504.19;1727248;82;21102;-70
2022/10/24 04:11:09;;;;;;;12.58;5.12;;;;;;;11.50;98.74;100508.11;1714930;81;21134;-70
2022/10/24 04:13:39;;;;;;;11.45;5.95;;;;;;;11.49;98.73;100503.66;1689342;82;21247;-71
2022/10/24 04:16:08;;;;;;;10.58;5.60;;;;;;;11.50;98.71;100497.66;1683275;84;21055;-70
2022/10/24 04:18:39;;;;;;;10.68;5.65;;;;;;;11.48;98.77;100497.00;1706911;81;21521;-69
2022/10/24 04:21:08;;;;;;;10.75;5.75;;;;;;;11.47;98.81;100496.69;1693687;82;21081;-68
2022/10/24 04:23:40;;;;;;;13.60;5.58;;;;;;;11.48;98.83;100499.75;1674690;84;21141;-70
2022/10/24 04:26:11;;;;;;;12.43;5.50;;;;;;;11.48;98.87;100491.52;1742428;79;21120;-70
2022/10/24 04:28:41;;;;;;;9.38;5.53;;;;;;;11.48;98.92;100503.34;1770014;78;21038;-69
2022/10/24 04:31:10;;;;;;;12.88;5.80;;;;;;;11.48;98.96;100498.37;1768517;79;21031;-69
2022/10/24 04:33:39;;;;;;;10.45;5.80;;;;;;;11.48;98.95;100510.20;1800121;79;21021;-69
2022/10/24 04:36:08;;;;;;;9.70;5.50;;;;;;;11.49;98.91;100511.90;1765898;79;21454;-71
2022/10/24 04:38:37;;;;;;;14.68;6.72;;;;;;;11.50;98.92;100513.59;1773085;79;21457;-70
2022/10/24 04:41:05;;;;;;;13.45;6.50;;;;;;;11.50;98.92;100516.34;1793056;79;20993;-70
2022/10/24 04:43:37;;;;;;;14.65;7.25;;;;;;;11.50;98.95;100524.57;1782578;79;21108;-71
2022/10/24 04:46:06;;;;;;;16.93;7.15;;;;;;;11.50;98.98;100530.05;1795638;78;21065;-70
2022/10/24 04:48:35;;;;;;;13.40;6.28;;;;;;;11.52;99.05;100532.59;1766292;79;21029;-71
2022/10/24 04:51:06;;;;;;;13.32;6.35;;;;;;;11.54;99.07;100529.13;1785676;79;21043;-70
2022/10/24 04:53:36;;;;;;;15.95;7.85;;;;;;;11.55;99.08;100531.67;1777242;79;21062;-69
2022/10/24 04:56:06;;;;;;;17.42;8.20;;;;;;;11.55;99.11;100538.53;1772780;78;21116;-71
2022/10/24 04:58:36;;;;;;;18.40;7.30;;;;;;;11.58;99.22;100537.28;1774942;79;21050;-70
2022/10/24 05:01:04;;;;;;;16.07;7.83;;;;;;;11.60;99.17;100542.05;1774399;79;21098;-71
2022/10/24 05:03:34;;;;;;;18.10;8.98;;;;;;;11.61;99.17;100544.59;1778718;79;21073;-70
2022/10/24 05:06:04;;;;;;;17.73;9.00;;;;;;;11.63;99.14;100548.51;1771556;79;21033;-70
2022/10/24 05:08:32;;;;;;;19.37;9.68;;;;;;;11.65;99.14;100546.41;1780798;79;21054;-71
2022/10/24 05:11:10;;;;;;;17.02;8.58;;;;;;;11.66;99.15;100553.07;1701423;82;21491;-70
2022/10/24 05:13:41;;;;;;;18.30;9.65;;;;;;;11.66;99.07;100548.95;1727843;81;21079;-70
2022/10/24 05:16:10;;;;;;;15.80;8.10;;;;;;;11.65;99.12;100548.63;1694441;83;21071;-70
2022/10/24 05:18:39;;;;;;;17.65;9.58;;;;;;;11.65;99.15;100551.90;1672331;83;21087;-71
2022/10/24 05:21:10;;;;;;;13.85;7.42;;;;;;;11.65;99.23;100550.53;1702885;81;21067;-71
2022/10/24 05:23:42;;;;;;;15.05;8.08;;;;;;;11.63;99.30;100552.09;1667373;84;21062;-70
2022/10/24 05:26:12;;;;;;;20.57;7.97;;;;;;;11.64;99.40;100552.95;1683767;83;21141;-71
2022/10/24 05:28:42;;;;;;;17.05;9.05;;;;;;;11.65;99.44;100551.90;1718849;81;21510;-70
2022/10/24 05:31:11;;;;;;;20.10;8.75;;;;;;;11.69;99.45;100560.90;1774352;79;21057;-71
2022/10/24 05:33:41;;;;;;;19.95;10.03;;;;;;;11.70;99.43;100562.63;1765566;79;20971;-71
2022/10/24 05:36:10;;;;;;;22.65;10.85;;;;;;;11.73;99.47;100564.12;1780577;78;21035;-70
2022/10/24 05:38:40;;;;;;;21.12;10.43;;;;;;;11.72;99.41;100561.91;1798081;79;21116;-71
2022/10/24 05:41:08;;;;;;;22.48;9.75;;;;;;;11.74;99.42;100565.30;1779741;79;21453;-71
2022/10/24 05:43:40;;;;;;;21.33;8.48;;;;;;;11.75;99.41;100562.87;1771118;79;21491;-69
2022/10/24 05:46:09;;;;;;;19.02;8.28;;;;;;;11.78;99.45;100566.30;1781233;79;21070;-71
2022/10/24 05:48:38;;;;;;;17.05;7.83;;;;;;;11.80;99.52;100569.69;1770389;79;21077;-71
2022/10/24 05:51:08;;;;;;;19.42;9.65;;;;;;;11.82;99.52;100564.84;1720775;81;21117;-69
2022/10/24 05:53:37;;;;;;;13.98;7.67;;;;;;;11.82;99.52;100572.55;1725635;81;21072;-71
2022/10/24 05:56:07;;;;;;;11.35;6.95;;;;;;;11.84;99.51;100575.09;1743406;80;21104;-71
2022/10/24 05:58:38;;;;;;;11.12;7.10;;;;;;;11.85;99.54;100571.30;1777787;79;21291;-70
2022/10/24 06:01:06;;;;;;;13.93;8.05;;;;;;;11.86;99.53;100573.84;1783948;78;21055;-69
2022/10/24 06:03:36;;;;;;;12.82;7.37;;;;;;;11.89;99.58;100578.09;1772495;79;21017;-72
2022/10/24 06:06:07;;;;;;;12.20;7.72;;;;;;;11.89;99.58;100576.72;1761940;79;21564;-70
2022/10/24 06:08:37;;;;;;;13.40;7.50;;;;;;;11.92;99.64;100579.06;1781945;79;21051;-71
2022/10/24 06:11:09;;;;;;;13.03;6.75;;;;;;;11.95;99.54;100584.14;1796111;79;21098;-71
2022/10/24 06:13:40;;;;;;;14.53;7.85;;;;;;;11.95;99.45;100586.89;1775787;79;21034;-72
2022/10/24 06:16:10;;;;;;;14.45;7.92;;;;;;;11.97;99.41;100583.41;1764883;79;21055;-72
2022/10/24 06:18:41;;;;;;;12.18;6.92;;;;;;;11.98;99.40;100582.37;1773444;79;21022;-71
2022/10/24 06:21:12;;;;;;;13.62;7.47;;;;;;;11.97;99.40;100584.27;1768464;79;21069;-71
2022/10/24 06:23:43;;;;;;;16.80;7.83;;;;;;;12.00;99.33;100581.11;1767791;79;21062;-72
2022/10/24 06:26:13;;;;;;;15.18;7.40;;;;;;;12.04;99.24;100582.92;1763272;79;21043;-73
2022/10/24 06:28:42;;;;;;;19.35;8.33;;;;;;;12.08;99.19;100588.86;1785582;79;21022;-72
2022/10/24 06:31:12;;;;;;;13.98;8.33;;;;;;;12.10;99.10;100586.23;1773759;79;21089;-69
2022/10/24 06:33:42;;;;;;;15.63;8.25;;;;;;;12.13;99.02;100593.22;1775413;79;21010;-70
2022/10/24 06:36:13;;;;;;;14.55;8.23;;;;;;;12.13;98.99;100596.81;1783850;78;21077;-69
2022/10/24 06:38:43;;;;;;;25.37;14.87;;;;;;;12.15;98.90;100597.46;1769157;78;21078;-71
2022/10/24 06:41:13;;;;;;;21.52;9.20;;;;;;;12.15;98.80;100597.46;1783847;79;21097;-70
2022/10/24 06:43:42;;;;;;;17.82;9.03;;;;;;;12.16;98.74;100607.40;1748885;81;21105;-71
2022/10/24 06:46:14;;;;;;;18.12;9.08;;;;;;;12.17;98.70;100603.59;1775279;79;21041;-70
2022/10/24 06:48:44;;;;;;;13.40;8.73;;;;;;;12.19;98.68;100608.36;1779952;79;20995;-70
2022/10/24 06:51:16;;;;;;;16.57;8.78;;;;;;;12.20;98.66;100610.06;1764089;79;21506;-71
2022/10/24 06:53:45;;;;;;;14.98;8.48;;;;;;;12.21;98.59;100604.89;1776904;78;21075;-70
2022/10/24 06:56:16;;;;;;;15.88;8.40;;;;;;;12.24;98.52;100609.13;1791804;79;21061;-70
2022/10/24 06:58:45;;;;;;;14.65;8.53;;;;;;;12.26;98.37;100601.00;1788556;79;21494;-71
2022/10/24 07:01:18;;;;;;;14.35;8.65;;;;;;;12.28;98.23;100601.64;1772281;79;21049;-72
2022/10/24 07:03:47;;;;;;;15.13;8.93;;;;;;;12.29;98.09;100601.97;1770643;79;20997;-71
2022/10/24 07:06:20;;;;;;;19.10;9.28;;;;;;;12.27;98.07;100601.33;1769872;79;21125;-70
2022/10/24 07:08:54;;;;;;;14.33;8.55;;;;;;;12.27;98.06;100604.08;1776053;78;21061;-70
2022/10/24 07:11:23;;;;;;;17.90;8.33;;;;;;;12.29;98.00;100595.63;1775206;78;21012;-71
2022/10/24 07:13:53;;;;;;;13.62;8.40;;;;;;;12.29;97.95;100602.50;1797116;79;21070;-69
2022/10/24 07:16:24;;;;;;;17.12;8.85;;;;;;;12.28;97.92;100609.05;1760909;79;21135;-68
2022/10/24 07:18:53;;;;;;;15.50;8.80;;;;;;;12.26;98.03;100613.36;1779949;78;21501;-70
2022/10/24 07:21:28;;;;;;;18.10;9.38;;;;;;;12.28;98.13;100611.27;1779536;79;21042;-70
2022/10/24 07:23:57;;;;;;;21.23;9.23;;;;;;;12.30;98.12;100613.28;1764985;79;21027;-69
2022/10/24 07:26:27;;;;;;;15.55;9.10;;;;;;;12.29;98.15;100608.84;1777764;79;21161;-69
2022/10/24 07:28:59;;;;;;;15.98;8.70;;;;;;;12.30;98.13;100607.78;1792881;79;21058;-69
2022/10/24 07:31:31;;;;;;;20.60;10.00;;;;;;;12.33;98.23;100612.88;1780652;78;21057;-71
2022/10/24 07:34:02;;;;;;;13.50;8.60;;;;;;;12.38;98.32;100608.17;1779557;79;21039;-70
2022/10/24 07:36:31;;;;;;;15.68;9.00;;;;;;;12.41;98.32;100613.78;1786184;79;21041;-71
2022/10/24 07:39:01;;;;;;;18.02;9.68;;;;;;;12.42;98.29;100612.73;1784736;79;21090;-72
2022/10/24 07:41:31;;;;;;;16.97;9.65;;;;;;;12.44;98.24;100618.88;1769725;79;21121;-72
2022/10/24 07:44:04;;;;;;;15.23;8.93;;;;;;;12.44;98.13;100614.22;1764843;80;21478;-70
2022/10/24 07:46:34;;;;;;;18.85;10.48;;;;;;;12.45;98.11;100613.70;1760495;79;21077;-70
2022/10/24 07:49:02;;;;;;;19.35;10.88;;;;;;;12.45;98.09;100613.17;1768722;79;21113;-73
2022/10/24 07:51:31;;;;;;;21.85;10.68;;;;;;;12.48;98.16;100616.03;1779539;79;21129;-70
2022/10/24 07:54:01;;;;;;;17.10;9.73;;;;;;;12.50;98.12;100610.66;1765877;80;21045;-71
2022/10/24 07:56:31;;;;;;;23.62;11.83;;;;;;;12.52;98.03;100606.33;1715716;81;21071;-71
2022/10/24 07:59:03;;;;;;;20.43;10.95;;;;;;;12.55;98.04;100610.04;1771946;79;21476;-69
2022/10/24 08:01:33;;;;;;;19.25;11.45;;;;;;;12.55;98.03;100602.64;1771791;78;21063;-72
2022/10/24 08:04:04;;;;;;;17.37;11.78;;;;;;;12.59;98.06;100603.08;1781196;79;21026;-71
2022/10/24 08:06:33;;;;;;;21.35;11.65;;;;;;;12.63;98.05;100601.08;1780435;79;21035;-72
2022/10/24 08:09:02;;;;;;;24.18;14.10;;;;;;;12.67;98.00;100598.23;1717116;81;21113;-73
2022/10/24 08:11:31;;;;;;;22.52;12.80;;;;;;;12.68;98.01;100597.19;1730324;82;21067;-70
2022/10/24 08:14:03;;;;;;;24.60;13.58;;;;;;;12.73;98.04;100604.81;1724446;82;21024;-72
2022/10/24 08:16:33;;;;;;;27.22;12.47;;;;;;;12.79;98.04;100598.48;1735630;82;21459;-73
2022/10/24 08:19:02;;;;;;;30.90;14.87;;;;;;;12.86;97.99;100597.97;1735904;81;21091;-74
2022/10/24 08:21:33;;;;;;;30.95;15.25;;;;;;;12.94;97.98;100603.28;1719999;82;21549;-74
2022/10/24 08:24:03;;;;;;;37.03;17.75;;;;;;;13.04;97.85;100602.06;1772524;79;21071;-73
2022/10/24 08:26:32;;;;;;;37.67;16.45;;;;;;;13.09;97.62;100599.00;1791500;79;21053;-72
2022/10/24 08:29:03;;;;;;;35.55;15.53;;;;;;;13.15;97.36;100606.95;1796041;79;21089;-72
2022/10/24 08:31:32;;;;;;;35.58;15.30;;;;;;;13.20;97.02;100604.45;1774238;79;21681;-72
2022/10/24 08:34:04;;;;;;;31.25;15.25;;;;;;;13.24;96.69;100608.47;1764374;79;21052;-74
2022/10/24 08:36:34;;;;;;;30.17;14.95;;;;;;;13.27;96.40;100608.05;1743781;79;21905;-73
2022/10/24 08:39:03;;;;;;;30.60;14.45;;;;;;;13.29;96.15;100606.78;1778284;79;21327;-75
2022/10/24 08:41:37;;;;;;;31.55;14.18;;;;;;;13.37;95.88;100613.14;1780359;79;21445;-74
2022/10/24 08:44:26;;;;;;;35.23;16.48;;;;;;;13.40;95.48;100609.96;1780981;79;21116;-72
2022/10/24 08:47:41;;;;;;;33.88;15.95;;;;;;;13.44;95.21;100610.70;1775614;79;21056;-74
2022/10/24 08:50:25;;;;;;;36.60;14.38;;;;;;;13.49;94.97;100609.55;1759873;80;21414;-72
2022/10/24 08:53:24;;;;;;;37.58;14.13;;;;;;;13.53;94.56;100609.44;1784441;79;21041;-72
2022/10/24 08:55:56;;;;;;;25.10;11.22;;;;;;;13.54;94.02;100604.78;1780666;78;21100;-74
2022/10/24 08:58:27;;;;;;;25.85;11.50;;;;;;;13.53;93.74;100609.44;1771968;79;21050;-72
2022/10/24 09:00:59;;;;;;;28.23;13.00;;;;;;;13.54;93.45;100605.63;1780166;78;21104;-73
2022/10/24 09:03:44;;;;;;;28.73;12.55;;;;;;;13.56;93.22;100610.92;1786347;79;21021;-74
2022/10/24 09:06:19;;;;;;;27.87;12.07;;;;;;;13.56;92.91;100604.88;1778716;79;21132;-72
2022/10/24 09:09:01;;;;;;;32.08;12.90;;;;;;;13.55;92.59;100610.07;1722438;81;21519;-74
2022/10/24 09:12:01;;;;;;;28.30;13.60;;;;;;;13.56;92.37;100604.88;1751677;80;21047;-72
2022/10/24 09:14:33;;;;;;;30.25;12.28;;;;;;;13.58;92.24;100609.65;1779314;79;21108;-71
2022/10/24 09:17:23;;;;;;;27.55;12.85;;;;;;;13.59;92.09;100603.61;1640138;85;21620;-75
2022/10/24 09:20:06;;;;;;;24.45;11.75;;;;;;;13.58;92.07;100612.41;1669914;84;21224;-74
2022/10/24 09:22:35;;;;;;;25.65;12.20;;;;;;;13.59;91.92;100611.34;1673192;84;21068;-73
2022/10/24 09:25:10;;;;;;;24.98;11.45;;;;;;;13.59;91.77;100612.72;1666047;84;21013;-74
2022/10/24 09:27:40;;;;;;;30.80;13.55;;;;;;;13.61;91.71;100613.88;1673603;84;21009;-73
2022/10/24 09:30:19;;;;;;;32.17;14.25;;;;;;;13.62;91.58;100616.42;1677436;84;21425;-73
2022/10/24 09:32:48;;;;;;;34.30;14.43;;;;;;;13.64;91.53;100611.55;1662754;84;21118;-74
2022/10/24 09:35:20;;;;;;;31.25;13.58;;;;;;;13.68;91.42;100609.78;1719617;79;21481;-74
2022/10/24 09:37:56;;;;;;;27.13;13.18;;;;;;;13.66;91.29;100603.11;1772258;79;20980;-74
2022/10/24 09:40:31;;;;;;;25.32;13.40;;;;;;;13.68;91.21;100598.77;1761896;79;21082;-74
2022/10/24 09:43:17;;;;;;;28.57;13.80;;;;;;;13.69;91.26;100593.58;1705853;83;21122;-73
2022/10/24 09:46:02;;;;;;;21.62;11.83;;;;;;;13.69;91.17;100592.20;1717694;82;21223;-75
2022/10/24 09:48:45;;;;;;;21.60;11.88;;;;;;;13.67;91.08;100596.55;1722403;82;21062;-70
2022/10/24 09:51:35;;;;;;;21.40;10.90;;;;;;;13.66;91.10;100596.22;1691880;83;21095;-73
2022/10/24 09:54:08;;;;;;;19.45;11.73;;;;;;;13.66;91.14;100591.25;1700731;83;21059;-72
2022/10/24 09:56:40;;;;;;;15.63;9.53;;;;;;;13.65;91.17;100604.14;1679112;84;21067;-73
2022/10/24 09:59:47;;;;;;;17.77;9.25;;;;;;;13.68;91.12;100607.03;1694460;83;21051;-73
2022/10/24 10:02:27;;;;;;;12.45;7.65;;;;;;;13.69;90.87;100607.34;1692861;83;21510;-74
2022/10/24 10:05:08;;;;;;;14.50;8.70;;;;;;;13.69;90.57;100609.56;1686478;83;21070;-72
2022/10/24 10:07:43;;;;;;;14.20;8.85;;;;;;;13.71;90.41;100612.95;1736091;80;21102;-68
2022/10/24 10:10:32;;;;;;;12.82;8.18;;;;;;;13.74;90.25;100610.30;1762516;79;21325;-67
2022/10/24 10:13:22;;;;;;;15.48;8.60;;;;;;;13.76;89.77;100608.19;1768330;80;21053;-76
2022/10/24 10:16:00;;;;;;;14.80;8.08;;;;;;;13.76;89.53;100593.88;1762511;80;21054;-77
2022/10/24 10:18:41;;;;;;;14.93;8.18;;;;;;;13.78;89.43;100600.02;1787878;79;21085;-75
2022/10/24 10:21:14;;;;;;;13.50;7.25;;;;;;;13.81;89.35;100602.87;1774991;79;21475;-76
2022/10/24 10:23:51;;;;;;;22.07;8.55;;;;;;;13.84;89.09;100603.30;1793012;79;21030;-71
2022/10/24 10:26:45;;;;;;;15.20;7.80;;;;;;;13.83;88.88;100603.52;1782675;79;20986;-74
2022/10/24 10:29:22;;;;;;;13.43;7.60;;;;;;;13.84;88.76;100594.19;1779081;79;21069;-75
2022/10/24 10:32:05;;;;;;;14.20;7.35;;;;;;;13.84;88.51;100607.96;1774496;78;21063;-75
2022/10/24 10:34:46;;;;;;;13.20;7.12;;;;;;;13.83;88.45;100611.25;1781237;78;21030;-77
2022/10/24 10:37:30;;;;;;;13.90;7.95;;;;;;;13.86;88.39;100608.59;1758645;79;20994;-73
2022/10/24 10:40:12;;;;;;;18.37;8.83;;;;;;;13.85;88.17;100611.03;1767101;79;21113;-74
2022/10/24 10:43:00;;;;;;;16.25;7.70;;;;;;;13.82;88.16;100599.06;1782243;79;21029;-75
2022/10/24 10:45:49;;;;;;;13.93;8.10;;;;;;;13.82;88.15;100583.91;1796638;78;21069;-74
2022/10/24 10:48:47;;;;;;;20.43;9.08;;;;;;;13.81;88.21;100583.07;1782586;78;21034;-74
2022/10/24 10:51:30;;;;;;;17.50;9.20;;;;;;;13.81;88.37;100585.83;1761493;79;21328;-74
2022/10/24 10:54:10;;;;;;;23.32;10.32;;;;;;;13.82;88.52;100586.67;1759737;79;21042;-72
2022/10/24 10:56:53;;;;;;;18.12;10.25;;;;;;;13.84;88.62;100588.15;1769934;79;21076;-72
2022/10/24 10:59:52;;;;;;;17.50;10.05;;;;;;;13.86;88.58;100593.45;1774208;78;21077;-74
2022/10/24 11:02:36;;;;;;;20.10;10.68;;;;;;;13.84;88.25;100587.30;1776838;79;21111;-74
2022/10/24 11:05:50;;;;;;;16.65;10.15;;;;;;;13.80;88.32;100597.05;1737336;80;21128;-76
2022/10/24 11:08:46;;;;;;;18.62;10.25;;;;;;;13.79;88.47;100596.73;1730097;81;21106;-74
2022/10/24 11:11:22;;;;;;;15.73;9.70;;;;;;;13.78;88.59;100597.27;1702132;82;21076;-73
2022/10/24 11:14:05;;;;;;;16.85;9.30;;;;;;;13.79;88.53;100603.63;1751760;80;21511;-72
2022/10/24 11:16:37;;;;;;;19.15;9.75;;;;;;;13.77;88.34;100594.73;1718144;82;21048;-73
2022/10/24 11:19:35;;;;;;;17.82;9.73;;;;;;;13.74;88.42;100591.03;1791431;78;21074;-73
2022/10/24 11:22:08;;;;;;;15.68;8.75;;;;;;;13.73;88.62;100589.33;1748242;78;21068;-71
2022/10/24 11:24:42;;;;;;;17.17;8.78;;;;;;;13.75;88.60;100585.30;1760288;79;21613;-74
2022/10/24 11:27:29;;;;;;;15.45;8.78;;;;;;;13.75;88.51;100589.44;1764659;79;21074;-69
2022/10/24 11:30:09;;;;;;;17.40;9.70;;;;;;;13.77;88.42;100594.73;1770529;79;21035;-73
2022/10/24 11:32:45;;;;;;;17.45;10.70;;;;;;;13.78;88.18;100596.42;1774587;79;21035;-72
2022/10/24 11:35:39;;;;;;;17.48;9.73;;;;;;;13.80;88.28;100595.68;1761087;80;21039;-73
2022/10/24 11:38:15;;;;;;;16.30;9.73;;;;;;;13.82;88.40;100597.69;1774276;78;21023;-74
2022/10/24 11:40:45;;;;;;;15.25;9.40;;;;;;;13.85;88.22;100595.88;1767373;78;21475;-72
2022/10/24 11:43:27;;;;;;;16.77;9.30;;;;;;;13.87;88.08;100586.88;1772328;78;21073;-73
2022/10/24 11:46:19;;;;;;;15.85;8.95;;;;;;;13.91;88.04;100584.00;1787071;79;21097;-73
2022/10/24 11:48:55;;;;;;;21.95;9.53;;;;;;;13.92;87.70;100591.20;1776718;79;21091;-72
2022/10/24 11:51:37;;;;;;;17.27;9.03;;;;;;;13.94;87.65;100587.70;1769590;79;21061;-72